SAWH/USH METAR and TAF weather

Enter ICAO airport designator
Station Type Date Time Source
SAWH METAR 2024/04/17 19:00 UTC NOAA

SAWH 171900Z 33005KT 290V020 9999 FEW045 13/05 Q1003


Station Type Date Time Source
SAWH Decoded METAR 2024/04/17 19:00 UTC NOAA

Ushuaia Aerodrome, Argentina (SAWH) 54-48S 068-19W 14M
Apr 17, 2024 - 03:00 PM EDT / 2024.04.17 1900 UTC
Wind: from the NNW (330 degrees) at 6 MPH (5 KT) (direction variable):0
Visibility: greater than 7 mile(s):0
Sky conditions: mostly clear
Temperature: 55 F (13 C)
Dew Point: 41 F (5 C)
Relative Humidity: 58%
Pressure (altimeter): 29.62 in. Hg (1003 hPa)
ob: SAWH 171900Z 33005KT 290V020 9999 FEW045 13/05 Q1003
cycle: 19

Station Type Date Time Source
SAWH TAF 2024/04/17 18:03 UTC NOAA